createdAt,value
2022-10-08T00:01:54.365Z,99058.22
2022-10-08T00:06:01.386Z,99048.34
2022-10-08T00:10:06.314Z,99036.78
2022-10-08T00:14:09.520Z,99048.97
2022-10-08T00:18:11.489Z,99042.31
2022-10-08T00:22:14.009Z,99050.06
2022-10-08T00:26:18.475Z,99054.22
2022-10-08T00:30:20.557Z,99051.09
2022-10-08T00:34:23.792Z,99044.97
2022-10-08T00:38:26.031Z,99044.13
2022-10-08T00:42:28.082Z,99033.78
2022-10-08T00:46:49.394Z,99032.97
2022-10-08T00:50:51.845Z,99029.22
2022-10-08T00:54:54.028Z,99025.78
2022-10-08T00:58:56.023Z,99018.81
2022-10-08T01:02:58.077Z,99018.06
2022-10-08T01:07:29.625Z,99016.72
2022-10-08T01:11:44.631Z,99010.56
2022-10-08T01:16:02.429Z,98998.25
2022-10-08T01:20:14.326Z,99003.06
2022-10-08T01:24:44.496Z,98999.53
2022-10-08T01:29:02.805Z,99000.34
2022-10-08T01:33:16.033Z,98996.13
2022-10-08T01:37:32.960Z,98984.09
2022-10-08T01:41:35.829Z,98987.53
2022-10-08T01:45:42.723Z,98981.09
2022-10-08T01:49:50.656Z,98985.13
2022-10-08T01:53:53.265Z,98987.53
2022-10-08T01:58:01.333Z,98973.66
2022-10-08T02:02:14.346Z,98969.91
2022-10-08T02:06:16.949Z,98969.38
2022-10-08T02:10:23.178Z,98965.34
2022-10-08T02:14:31.871Z,98963.69
2022-10-08T02:18:51.954Z,98961.06
2022-10-08T02:22:59.075Z,98963.19
2022-10-08T02:27:04.606Z,98962.41
2022-10-08T02:31:14.243Z,98964.03
2022-10-08T02:35:32.192Z,98953.63
2022-10-08T02:39:39.169Z,98953.63
2022-10-08T02:43:49.712Z,98955.19
2022-10-08T02:47:56.509Z,98961.59
2022-10-08T02:52:04.232Z,98954.41
2022-10-08T02:56:38.916Z,98948.03
2022-10-08T03:00:54.771Z,98959.25
2022-10-08T03:05:03.291Z,98954.94
2022-10-08T03:09:06.918Z,98959.47
2022-10-08T03:13:10.747Z,98957.38
2022-10-08T03:17:16.080Z,98954.44
2022-10-08T03:21:19.380Z,98945.91
2022-10-08T03:25:21.413Z,98951.50
2022-10-08T03:29:23.529Z,98946.16
2022-10-08T03:33:25.501Z,98949.63
2022-10-08T03:37:27.535Z,98952.25
2022-10-08T03:41:31.417Z,98954.97
2022-10-08T03:45:33.635Z,98947.78
2022-10-08T03:49:35.668Z,98954.75
2022-10-08T03:53:39.258Z,98956.59
2022-10-08T03:57:41.404Z,98956.59
2022-10-08T04:01:43.657Z,98952.59
2022-10-08T04:05:49.351Z,98947.00
2022-10-08T04:09:51.339Z,98946.44
2022-10-08T04:13:53.443Z,98948.56
2022-10-08T04:17:55.415Z,98954.41
2022-10-08T04:21:58.055Z,98960.81
2022-10-08T04:26:00.076Z,98958.97
2022-10-08T04:30:02.107Z,98962.94
2022-10-08T04:34:04.134Z,98954.63
2022-10-08T04:38:06.160Z,98950.09
2022-10-08T04:42:08.332Z,98961.28
2022-10-08T04:46:13.385Z,98961.81
2022-10-08T04:50:15.513Z,98965.47
2022-10-08T04:54:22.749Z,98954.28
2022-10-08T04:58:25.972Z,98956.44
2022-10-08T05:02:28.056Z,98958.03
2022-10-08T05:06:31.627Z,98959.41
2022-10-08T05:10:34.004Z,98957.81
2022-10-08T05:19:40.527Z,98971.91
2022-10-08T05:23:43.437Z,98970.28
2022-10-08T05:27:45.482Z,98977.47
2022-10-08T05:31:47.627Z,98980.47
2022-10-08T05:35:49.795Z,98976.22
2022-10-08T05:39:51.879Z,98974.69
2022-10-08T05:43:55.125Z,98976.78
2022-10-08T05:47:57.538Z,98968.81
2022-10-08T05:51:59.661Z,98978.19
2022-10-08T05:56:11.240Z,98983.31
2022-10-08T06:00:16.797Z,98979.34
2022-10-08T06:04:21.973Z,98973.75
2022-10-08T06:08:24.202Z,98987.13
2022-10-08T06:12:26.721Z,98990.34
2022-10-08T06:16:30.469Z,98987.91
2022-10-08T06:20:32.729Z,98999.66
2022-10-08T06:24:34.673Z,98994.34
2022-10-08T06:28:38.937Z,98998.13
2022-10-08T06:32:42.231Z,99001.06
2022-10-08T06:36:44.269Z,98994.69
2022-10-08T06:40:46.297Z,99000.84
2022-10-08T06:44:48.379Z,99002.22
2022-10-08T06:48:50.546Z,99000.09
2022-10-08T06:52:52.635Z,98995.75
2022-10-08T06:56:55.791Z,98988.50
2022-10-08T07:01:08.895Z,98986.06
2022-10-08T07:05:10.921Z,98984.47
2022-10-08T07:09:13.550Z,98990.31
2022-10-08T07:13:15.564Z,98984.38
2022-10-08T07:17:17.611Z,98988.59
2022-10-08T07:21:20.992Z,98999.78
2022-10-08T07:25:23.023Z,99002.19
2022-10-08T07:29:26.347Z,99002.72
2022-10-08T07:33:31.242Z,99000.22
2022-10-08T07:37:34.072Z,99002.28
2022-10-08T07:41:36.618Z,99013.97
2022-10-08T07:45:49.417Z,99009.91
2022-10-08T07:49:52.535Z,99015.41
2022-10-08T07:53:58.806Z,99016.41
2022-10-08T07:58:04.705Z,99008.38
2022-10-08T08:02:06.862Z,99005.97
2022-10-08T08:06:16.567Z,99013.94
2022-10-08T08:10:18.547Z,99013.16
2022-10-08T08:14:21.598Z,99010.50
2022-10-08T08:18:24.028Z,99003.34
2022-10-08T08:22:26.091Z,99011.66
2022-10-08T08:26:32.943Z,99010.06
2022-10-08T08:30:35.209Z,99019.94
2022-10-08T08:34:39.096Z,99025.16
2022-10-08T08:38:41.211Z,99024.66
2022-10-08T08:42:57.210Z,99016.09
2022-10-08T08:47:15.925Z,99023.66
2022-10-08T08:51:17.922Z,99031.75
2022-10-08T08:55:30.072Z,99023.75
2022-10-08T08:59:35.866Z,99021.00
2022-10-08T09:03:54.524Z,99021.94
2022-10-08T09:08:02.582Z,99013.94
2022-10-08T09:12:36.470Z,99011.97
2022-10-08T09:16:39.904Z,99010.34
2022-10-08T09:20:42.588Z,99013.56
2022-10-08T09:24:46.678Z,99015.66
2022-10-08T09:28:59.350Z,99006.97
2022-10-08T09:33:06.681Z,99011.47
2022-10-08T09:37:19.292Z,99009.41
2022-10-08T09:41:21.307Z,99015.44
2022-10-08T09:45:38.501Z,99020.88
2022-10-08T09:49:41.283Z,99012.41
2022-10-08T09:53:48.389Z,99010.16
2022-10-08T09:57:55.684Z,99003.81
2022-10-08T10:01:58.963Z,98989.97
2022-10-08T10:06:01.679Z,98985.69
2022-10-08T10:10:06.430Z,98977.38
2022-10-08T10:14:24.086Z,98982.16
2022-10-08T10:18:32.674Z,98977.72
2022-10-08T10:23:15.178Z,98976.59
2022-10-08T10:27:47.080Z,98970.03
2022-10-08T10:32:04.872Z,98963.94
2022-10-08T10:36:13.618Z,98956.34
2022-10-08T10:40:31.901Z,98952.38
2022-10-08T10:44:57.726Z,98956.66
2022-10-08T10:49:00.134Z,98954.91
2022-10-08T10:53:16.050Z,98953.56
2022-10-08T10:57:30.025Z,98945.88
2022-10-08T11:01:51.092Z,98945.84
2022-10-08T11:06:13.001Z,98944.56
2022-10-08T11:10:17.924Z,98940.34
2022-10-08T11:14:44.889Z,98933.25
2022-10-08T11:18:58.734Z,98921.56
2022-10-08T11:23:06.040Z,98921.41
2022-10-08T11:28:03.886Z,98929.75
2022-10-08T11:32:12.634Z,98921.03
2022-10-08T11:36:37.610Z,98906.50
2022-10-08T11:41:12.019Z,98905.94
2022-10-08T11:45:15.217Z,98897.19
2022-10-08T11:49:17.115Z,98882.88
2022-10-08T11:53:21.791Z,98884.88
2022-10-08T12:01:59.045Z,98876.03
2022-10-08T12:06:13.420Z,98868.50
2022-10-08T12:10:18.405Z,98867.19
2022-10-08T12:14:20.431Z,98863.38
2022-10-08T12:18:26.237Z,98857.44
2022-10-08T12:22:28.509Z,98859.97
2022-10-08T12:26:30.466Z,98855.78
2022-10-08T12:30:52.987Z,98839.50
2022-10-08T12:34:55.881Z,98842.13
2022-10-08T12:39:26.638Z,98838.94
2022-10-08T12:43:32.053Z,98825.88
2022-10-08T12:48:08.778Z,98829.03
2022-10-08T12:52:18.494Z,98828.44
2022-10-08T12:56:29.323Z,98831.81
2022-10-08T13:00:34.570Z,98827.31
2022-10-08T13:04:37.087Z,98827.19
2022-10-08T13:08:40.268Z,98824.28
2022-10-08T13:12:43.670Z,98820.72
2022-10-08T13:16:46.573Z,98818.28
2022-10-08T13:21:05.304Z,98828.59
2022-10-08T13:25:34.134Z,98821.13
2022-10-08T13:29:37.471Z,98818.34
2022-10-08T13:33:39.522Z,98809.97
2022-10-08T13:37:41.716Z,98806.16
2022-10-08T13:41:52.355Z,98804.66
2022-10-08T13:45:54.611Z,98799.25
2022-10-08T13:50:01.795Z,98800.88
2022-10-08T13:54:04.063Z,98796.63
2022-10-08T13:58:06.794Z,98798.56
2022-10-08T14:02:13.491Z,98802.06
2022-10-08T14:06:15.625Z,98804.44
2022-10-08T14:10:19.078Z,98804.97
2022-10-08T14:14:22.639Z,98798.50
2022-10-08T14:18:24.687Z,98804.19
2022-10-08T14:22:26.699Z,98804.97
2022-10-08T14:26:28.903Z,98804.97
2022-10-08T14:30:33.557Z,98806.00
2022-10-08T14:34:35.871Z,98796.41
2022-10-08T14:38:37.887Z,98795.94
2022-10-08T14:42:39.864Z,98796.59
2022-10-08T14:46:41.878Z,98787.00
2022-10-08T14:50:43.857Z,98785.06
2022-10-08T14:54:45.944Z,98791.28
2022-10-08T14:58:47.974Z,98781.19
2022-10-08T15:02:50.003Z,98787.72
2022-10-08T15:06:52.312Z,98778.56
2022-10-08T15:10:54.379Z,98784.63
2022-10-08T15:14:56.519Z,98777.75
2022-10-08T15:18:58.820Z,98769.72
2022-10-08T15:23:01.941Z,98765.78
2022-10-08T15:27:04.350Z,98768.69
2022-10-08T15:31:09.995Z,98772.78
2022-10-08T15:35:12.067Z,98768.03
2022-10-08T15:39:17.069Z,98771.63
2022-10-08T15:43:19.416Z,98773.56
2022-10-08T15:47:21.475Z,98780.28
2022-10-08T15:51:24.459Z,98770.56
2022-10-08T15:55:26.510Z,98778.72
2022-10-08T15:59:28.572Z,98777.16
2022-10-08T16:03:38.074Z,98781.66
2022-10-08T16:07:40.226Z,98783.91
2022-10-08T16:11:42.597Z,98785.22
2022-10-08T16:15:44.547Z,98789.19
2022-10-08T16:19:46.590Z,98788.50
2022-10-08T16:23:48.936Z,98796.53
2022-10-08T16:27:51.071Z,98797.31
2022-10-08T16:31:53.287Z,98800.22
2022-10-08T16:35:56.038Z,98805.44
2022-10-08T16:40:03.839Z,98806.06
2022-10-08T16:44:13.244Z,98806.50
2022-10-08T16:48:15.692Z,98813.00
2022-10-08T16:52:17.714Z,98814.84
2022-10-08T16:56:21.511Z,98806.56
2022-10-08T17:00:23.573Z,98810.19
2022-10-08T17:04:27.988Z,98820.63
2022-10-08T17:08:30.194Z,98814.84
2022-10-08T17:12:32.636Z,98823.00
2022-10-08T17:16:36.128Z,98820.66
2022-10-08T17:20:38.268Z,98826.53
2022-10-08T17:24:42.401Z,98834.03
2022-10-08T17:28:45.747Z,98830.94
2022-10-08T17:32:48.288Z,98838.59
2022-10-08T17:36:50.495Z,98849.47
2022-10-08T17:40:52.430Z,98847.66
2022-10-08T17:44:54.463Z,98854.72
2022-10-08T17:48:56.891Z,98863.28
2022-10-08T17:52:58.895Z,98858.28
2022-10-08T17:57:00.868Z,98855.97
2022-10-08T18:01:14.571Z,98857.84
2022-10-08T18:05:16.704Z,98854.00
2022-10-08T18:09:20.586Z,98860.19
2022-10-08T18:13:22.620Z,98861.31
2022-10-08T18:17:25.358Z,98864.03
2022-10-08T18:21:27.876Z,98866.72
2022-10-08T18:25:30.120Z,98870.38
2022-10-08T18:29:32.166Z,98867.44
2022-10-08T18:33:36.231Z,98873.56
2022-10-08T18:37:38.283Z,98877.84
2022-10-08T18:41:45.757Z,98879.72
2022-10-08T18:45:47.855Z,98884.97
2022-10-08T18:49:50.001Z,98885.97
2022-10-08T18:53:53.610Z,98882.00
2022-10-08T18:57:55.575Z,98886.38
2022-10-08T19:01:59.431Z,98891.06
2022-10-08T19:06:01.647Z,98896.06
2022-10-08T19:10:04.313Z,98896.00
2022-10-08T19:14:08.424Z,98904.38
2022-10-08T19:18:10.760Z,98902.72
2022-10-08T19:22:13.057Z,98907.00
2022-10-08T19:26:15.231Z,98908.97
2022-10-08T19:30:20.277Z,98912.25
2022-10-08T19:34:27.654Z,98918.97
2022-10-08T19:38:30.514Z,98931.34
2022-10-08T19:42:32.555Z,98928.13
2022-10-08T19:46:34.950Z,98934.56
2022-10-08T19:50:37.127Z,98939.66
2022-10-08T19:54:39.076Z,98945.50
2022-10-08T19:58:47.645Z,98942.34
2022-10-08T20:02:51.396Z,98942.31
2022-10-08T20:06:54.360Z,98946.81
2022-10-08T20:10:59.310Z,98951.38
2022-10-08T20:15:01.308Z,98959.94
2022-10-08T20:19:06.771Z,98954.34
2022-10-08T20:23:09.613Z,98945.78
2022-10-08T20:27:11.739Z,98956.47
2022-10-08T20:31:24.014Z,98954.06
2022-10-08T20:35:26.365Z,98956.22
2022-10-08T20:39:28.731Z,98955.13
2022-10-08T20:43:33.590Z,98955.94
2022-10-08T20:47:35.601Z,98958.09
2022-10-08T20:51:40.038Z,98952.44
2022-10-08T20:55:41.943Z,98956.22
2022-10-08T20:59:44.045Z,98961.00
2022-10-08T21:03:47.449Z,98957.50
2022-10-08T21:07:49.374Z,98963.38
2022-10-08T21:11:53.659Z,98962.59
2022-10-08T21:16:03.719Z,98961.00
2022-10-08T21:20:06.616Z,98956.75
2022-10-08T21:24:09.436Z,98959.94
2022-10-08T21:28:11.563Z,98967.44
2022-10-08T21:32:13.673Z,98960.22
2022-10-08T21:36:19.033Z,98974.88
2022-10-08T21:40:21.046Z,98965.81
2022-10-08T21:44:23.297Z,98969.28
2022-10-08T21:48:26.380Z,98972.75
2022-10-08T21:52:28.337Z,98970.34
2022-10-08T21:56:32.934Z,98975.16
2022-10-08T22:00:35.058Z,98961.53
2022-10-08T22:04:37.211Z,98955.66
2022-10-08T22:08:39.192Z,98959.94
2022-10-08T22:12:41.171Z,98966.06
2022-10-08T22:16:43.538Z,98961.78
2022-10-08T22:20:46.044Z,98963.63
2022-10-08T22:24:48.375Z,98962.00
2022-10-08T22:28:50.986Z,98959.63
2022-10-08T22:32:53.167Z,98957.22
2022-10-08T22:36:55.080Z,98961.47
2022-10-08T22:41:02.071Z,98966.81
2022-10-08T22:45:04.268Z,98967.84
2022-10-08T22:49:09.138Z,98967.56
2022-10-08T22:53:11.457Z,98959.31
2022-10-08T22:57:13.551Z,98953.69
2022-10-08T23:01:18.586Z,98962.44
2022-10-08T23:05:21.004Z,98957.91
2022-10-08T23:09:22.937Z,98958.63
2022-10-08T23:13:25.469Z,98960.81
2022-10-08T23:17:27.493Z,98963.78
2022-10-08T23:21:30.023Z,98962.72
2022-10-08T23:25:32.174Z,98967.00
2022-10-08T23:29:34.116Z,98965.88
2022-10-08T23:33:38.301Z,98964.13
2022-10-08T23:37:40.263Z,98963.88
2022-10-08T23:41:42.388Z,98960.09
2022-10-08T23:45:44.487Z,98960.59
2022-10-08T23:49:46.516Z,98954.28
2022-10-08T23:53:48.943Z,98967.69
2022-10-08T23:57:50.872Z,98962.63
